KLWT/LWT METAR and TAF weather

Enter ICAO airport designator
Station Type Date Time Source
KLWT METAR 2021/01/20 21:54 UTC NOAA

KLWT 202154Z AUTO 29018G25KT 10SM CLR 03/M07 A2982 RMK AO2 SLP117 T00281072


Station Type Date Time Source
KLWT Decoded METAR 2021/01/20 21:54 UTC NOAA

LEWISTOWN MUNICIPAL AIRPORT , MT, United States (KLWT) 47-03N 109-27W
Jan 20, 2021 - 04:54 PM EST / 2021.01.20 2154 UTC
Wind: from the WNW (290 degrees) at 21 MPH (18 KT) gusting to 29 MPH (25 KT):0
Visibility: 10 mile(s):0
Sky conditions: clear
Temperature: 37.0 F (2.8 C)
Dew Point: 19.0 F (-7.2 C)
Relative Humidity: 47%
Pressure (altimeter): 29.82 in. Hg (1009 hPa)
ob: KLWT 202154Z AUTO 29018G25KT 10SM CLR 03/M07 A2982 RMK AO2 SLP117 T00281072
cycle: 22

Station Type Date Time Source
KLWT TAF 2021/01/20 18:39 UTC NOAA

TAF KLWT 201736Z 2018/2118 28015G24KT P6SM SKC
FM210000 30013G21KT P6SM FEW090 WS020/29045KT
FM210400 28008KT P6SM BKN120 WS020/32035KT

Example: see airport list